createdAt,value
2017-11-28T00:00:55.916Z,6.97
2017-11-28T00:01:55.907Z,6.94
2017-11-28T00:02:55.910Z,6.98
2017-11-28T00:03:55.886Z,6.98
2017-11-28T00:04:55.887Z,7.02
2017-11-28T00:05:55.869Z,6.99
2017-11-28T00:06:55.590Z,6.97
2017-11-28T00:07:55.574Z,6.92
2017-11-28T00:08:55.817Z,6.95
2017-11-28T00:09:55.817Z,7.02
2017-11-28T00:10:55.800Z,6.99
2017-11-28T00:11:55.791Z,6.99
2017-11-28T00:12:55.768Z,7.09
2017-11-28T00:13:55.758Z,7.12
2017-11-28T00:14:55.745Z,6.98
2017-11-28T00:15:55.725Z,6.97
2017-11-28T00:16:55.721Z,6.97
2017-11-28T00:17:55.699Z,6.92
2017-11-28T00:18:55.689Z,6.95
2017-11-28T00:19:55.679Z,6.98
2017-11-28T00:20:55.669Z,6.92
2017-11-28T00:21:55.665Z,7.03
2017-11-28T00:22:55.662Z,7.02
2017-11-28T00:23:55.650Z,6.99
2017-11-28T00:24:55.622Z,7.02
2017-11-28T00:25:55.358Z,7.07
2017-11-28T00:26:55.617Z,7.07
2017-11-28T00:27:55.595Z,7.1
2017-11-28T00:28:55.585Z,7.15
2017-11-28T00:29:55.568Z,7.09
2017-11-28T00:30:55.556Z,7.1
2017-11-28T00:31:55.544Z,7.06
2017-11-28T00:32:55.530Z,7.09
2017-11-28T00:33:55.535Z,7.06
2017-11-28T00:34:55.520Z,7.15
2017-11-28T00:35:55.505Z,7.15
2017-11-28T00:36:55.228Z,7.12
2017-11-28T00:37:55.470Z,7.1
2017-11-28T00:38:55.454Z,7.16
2017-11-28T00:39:55.438Z,7.16
2017-11-28T00:40:55.444Z,7.16
2017-11-28T00:41:55.416Z,7.16
2017-11-28T00:42:55.154Z,7.09
2017-11-28T00:43:55.409Z,7.17
2017-11-28T00:44:55.389Z,7.23
2017-11-28T00:45:55.396Z,7.13
2017-11-28T00:46:55.367Z,7.21
2017-11-28T00:47:55.369Z,7.17
2017-11-28T00:48:55.353Z,7.15
2017-11-28T00:49:55.340Z,7.17
2017-11-28T00:50:55.338Z,7.21
2017-11-28T00:51:55.311Z,7.23
2017-11-28T00:52:55.290Z,7.17
2017-11-28T00:53:55.026Z,7.31
2017-11-28T00:54:55.279Z,7.3
2017-11-28T00:55:55.272Z,7.28
2017-11-28T00:56:55.261Z,7.24
2017-11-28T00:57:55.244Z,7.35
2017-11-28T00:58:55.229Z,7.27
2017-11-28T00:59:54.984Z,7.31
2017-11-28T01:00:55.212Z,7.37
2017-11-28T01:01:55.190Z,7.27
2017-11-28T01:02:55.181Z,7.32
2017-11-28T01:03:55.169Z,7.28
2017-11-28T01:04:55.162Z,7.32
2017-11-28T01:05:55.171Z,7.32
2017-11-28T01:06:55.142Z,7.28
2017-11-28T01:07:55.141Z,7.3
2017-11-28T01:08:55.139Z,7.37
2017-11-28T01:09:55.105Z,7.32
2017-11-28T01:10:55.098Z,7.3
2017-11-28T01:11:55.086Z,7.28
2017-11-28T01:12:55.062Z,7.31
2017-11-28T01:13:55.050Z,7.27
2017-11-28T01:14:55.032Z,7.25
2017-11-28T01:15:55.028Z,7.37
2017-11-28T01:16:55.026Z,7.28
2017-11-28T01:17:55.031Z,7.35
2017-11-28T01:18:54.998Z,7.37
2017-11-28T01:19:55.252Z,7.43
2017-11-28T01:20:54.980Z,7.39
2017-11-28T01:21:54.962Z,7.39
2017-11-28T01:22:54.948Z,7.39
2017-11-28T01:23:54.948Z,7.37
2017-11-28T01:24:54.936Z,7.4
2017-11-28T01:25:54.934Z,7.45
2017-11-28T01:26:54.640Z,7.4
2017-11-28T01:27:54.894Z,7.43
2017-11-28T01:28:54.614Z,7.48
2017-11-28T01:29:54.878Z,7.58
2017-11-28T01:30:54.856Z,7.46
2017-11-28T01:31:54.845Z,7.46
2017-11-28T01:32:54.844Z,7.49
2017-11-28T01:33:54.826Z,7.53
2017-11-28T01:34:54.827Z,7.53
2017-11-28T01:35:54.796Z,7.5
2017-11-28T01:36:54.790Z,7.4
2017-11-28T01:37:54.774Z,7.43
2017-11-28T01:38:54.771Z,7.46
2017-11-28T01:39:54.761Z,7.5
2017-11-28T01:40:54.743Z,7.48
2017-11-28T01:41:54.766Z,7.49
2017-11-28T01:42:54.721Z,7.45
2017-11-28T01:43:54.717Z,7.4
2017-11-28T01:44:54.695Z,7.46
2017-11-28T01:45:54.684Z,7.45
2017-11-28T01:46:54.669Z,7.42
2017-11-28T01:47:54.665Z,7.42
2017-11-28T01:48:54.665Z,7.4
2017-11-28T01:49:54.639Z,7.39
2017-11-28T01:50:54.879Z,7.39
2017-11-28T01:51:54.614Z,7.27
2017-11-28T01:52:54.603Z,7.32
2017-11-28T01:53:54.605Z,7.37
2017-11-28T01:54:54.581Z,7.35
2017-11-28T01:55:54.585Z,7.3
2017-11-28T01:56:54.566Z,7.17
2017-11-28T01:57:54.550Z,7.16
2017-11-28T01:58:54.564Z,7.15
2017-11-28T01:59:54.540Z,7.21
2017-11-28T02:00:54.513Z,7.03
2017-11-28T02:01:54.530Z,7.13
2017-11-28T02:02:54.494Z,6.97
2017-11-28T02:03:54.482Z,6.94
2017-11-28T02:04:54.473Z,6.94
2017-11-28T02:05:54.454Z,6.84
2017-11-28T02:06:54.466Z,6.89
2017-11-28T02:07:54.442Z,6.89
2017-11-28T02:08:54.417Z,6.8
2017-11-28T02:09:54.409Z,6.81
2017-11-28T02:10:54.388Z,6.71
2017-11-28T02:11:54.379Z,6.71
2017-11-28T02:12:54.370Z,6.71
2017-11-28T02:13:54.373Z,6.7
2017-11-28T02:14:54.085Z,6.74
2017-11-28T02:15:54.334Z,6.71
2017-11-28T02:16:54.319Z,6.71
2017-11-28T02:17:54.314Z,6.58
2017-11-28T02:18:54.296Z,6.7
2017-11-28T02:19:54.299Z,6.66
2017-11-28T02:20:54.283Z,6.61
2017-11-28T02:21:54.522Z,6.71
2017-11-28T02:22:53.991Z,6.66
2017-11-28T02:23:54.004Z,6.66
2017-11-28T02:24:53.963Z,6.62
2017-11-28T02:25:54.222Z,6.66
2017-11-28T02:26:54.205Z,6.61
2017-11-28T02:27:54.197Z,6.58
2017-11-28T02:28:54.180Z,6.67
2017-11-28T02:29:54.166Z,6.7
2017-11-28T02:30:53.901Z,6.76
2017-11-28T02:31:54.141Z,6.73
2017-11-28T02:32:54.133Z,6.71
2017-11-28T02:33:54.123Z,6.73
2017-11-28T02:34:54.117Z,6.7
2017-11-28T02:35:54.113Z,6.74
2017-11-28T02:36:54.086Z,6.69
2017-11-28T02:37:54.073Z,6.64
2017-11-28T02:38:54.061Z,6.79
2017-11-28T02:39:54.052Z,6.7
2017-11-28T02:40:54.037Z,6.76
2017-11-28T02:41:54.029Z,6.7
2017-11-28T02:42:54.032Z,6.66
2017-11-28T02:43:54.006Z,6.69
2017-11-28T02:44:53.995Z,6.7
2017-11-28T02:45:53.982Z,6.71
2017-11-28T02:46:53.978Z,6.81
2017-11-28T02:47:53.946Z,6.81
2017-11-28T02:48:53.956Z,6.76
2017-11-28T02:49:53.922Z,6.84
2017-11-28T02:50:53.931Z,6.81
2017-11-28T02:51:53.904Z,6.74
2017-11-28T02:52:54.139Z,6.77
2017-11-28T02:53:53.881Z,6.81
2017-11-28T02:54:53.888Z,6.88
2017-11-28T02:55:53.852Z,6.84
2017-11-28T02:56:53.845Z,6.84
2017-11-28T02:57:53.828Z,6.85
2017-11-28T02:58:53.815Z,6.81
2017-11-28T02:59:53.795Z,6.85
2017-11-28T03:00:53.797Z,6.85
2017-11-28T03:01:53.782Z,6.88
2017-11-28T03:02:53.785Z,6.81
2017-11-28T03:03:53.759Z,6.84
2017-11-28T03:04:53.747Z,6.89
2017-11-28T03:05:53.475Z,6.84
2017-11-28T03:06:53.721Z,6.87
2017-11-28T03:07:53.713Z,6.91
2017-11-28T03:08:53.710Z,6.84
2017-11-28T03:09:53.704Z,6.88
2017-11-28T03:10:53.679Z,6.88
2017-11-28T03:11:53.676Z,6.92
2017-11-28T03:12:53.659Z,6.84
2017-11-28T03:13:53.633Z,6.88
2017-11-28T03:14:53.625Z,6.88
2017-11-28T03:15:53.623Z,6.97
2017-11-28T03:16:53.615Z,6.98
2017-11-28T03:17:53.593Z,7.02
2017-11-28T03:18:53.600Z,6.95
2017-11-28T03:19:53.307Z,7.1
2017-11-28T03:20:53.304Z,7.07
2017-11-28T03:21:53.544Z,7.07
2017-11-28T03:22:53.538Z,7.13
2017-11-28T03:23:53.540Z,7.15
2017-11-28T03:24:53.518Z,7.15
2017-11-28T03:25:53.526Z,7.3
2017-11-28T03:26:53.492Z,7.27
2017-11-28T03:27:53.466Z,7.24
2017-11-28T03:28:53.469Z,7.31
2017-11-28T03:29:53.457Z,7.32
2017-11-28T03:30:53.458Z,7.31
2017-11-28T03:31:53.163Z,7.32
2017-11-28T03:32:53.415Z,7.34
2017-11-28T03:33:53.402Z,7.35
2017-11-28T03:34:53.401Z,7.28
2017-11-28T03:35:53.380Z,7.42
2017-11-28T03:36:53.368Z,7.34
2017-11-28T03:37:53.098Z,7.46
2017-11-28T03:38:53.343Z,7.46
2017-11-28T03:39:53.361Z,7.49
2017-11-28T03:40:53.336Z,7.45
2017-11-28T03:41:53.316Z,7.48
2017-11-28T03:42:53.299Z,7.5
2017-11-28T03:43:53.307Z,7.5
2017-11-28T03:44:53.275Z,7.46
2017-11-28T03:45:53.289Z,7.6
2017-11-28T03:46:53.280Z,7.57
2017-11-28T03:47:53.259Z,7.57
2017-11-28T03:48:53.249Z,7.6
2017-11-28T03:49:53.246Z,7.49
2017-11-28T03:50:53.205Z,7.61
2017-11-28T03:51:53.196Z,7.5
2017-11-28T03:52:53.188Z,7.53
2017-11-28T03:53:53.194Z,7.57
2017-11-28T03:54:52.897Z,7.55
2017-11-28T03:55:53.138Z,7.52
2017-11-28T03:56:53.127Z,7.61
2017-11-28T03:57:53.125Z,7.57
2017-11-28T03:58:53.102Z,7.63
2017-11-28T03:59:53.094Z,7.63
2017-11-28T04:00:53.087Z,7.68
2017-11-28T04:01:53.075Z,7.69
2017-11-28T04:02:53.072Z,7.8
2017-11-28T04:03:53.049Z,7.77
2017-11-28T04:04:53.044Z,7.79
2017-11-28T04:05:53.045Z,7.8
2017-11-28T04:06:53.037Z,7.77
2017-11-28T04:07:53.013Z,7.83
2017-11-28T04:08:53.007Z,7.79
2017-11-28T04:09:53.000Z,7.74
2017-11-28T04:10:52.972Z,7.71
2017-11-28T04:11:52.981Z,7.74
2017-11-28T04:12:52.965Z,7.77
2017-11-28T04:13:52.959Z,7.77
2017-11-28T04:14:52.924Z,7.79
2017-11-28T04:15:52.936Z,7.8
2017-11-28T04:16:52.919Z,7.72
2017-11-28T04:17:52.889Z,7.75
2017-11-28T04:18:52.897Z,7.83
2017-11-28T04:19:52.623Z,7.79
2017-11-28T04:20:52.873Z,7.75
2017-11-28T04:21:52.849Z,7.8
2017-11-28T04:22:52.849Z,7.86
2017-11-28T04:23:52.572Z,7.85
2017-11-28T04:24:52.826Z,7.9
2017-11-28T04:25:52.820Z,7.86
2017-11-28T04:26:53.093Z,7.83
2017-11-28T04:27:52.778Z,7.92
2017-11-28T04:28:52.775Z,7.93
2017-11-28T04:29:52.797Z,7.95
2017-11-28T04:30:52.759Z,7.95
2017-11-28T04:31:52.741Z,7.89
2017-11-28T04:32:52.732Z,7.97
2017-11-28T04:33:52.452Z,7.92
2017-11-28T04:34:52.707Z,7.97
2017-11-28T04:35:52.692Z,7.97
2017-11-28T04:36:52.688Z,8
2017-11-28T04:37:52.682Z,8.02
2017-11-28T04:38:52.676Z,8.02
2017-11-28T04:39:52.656Z,8.04
2017-11-28T04:40:52.645Z,8.07
2017-11-28T04:41:52.630Z,8.01
2017-11-28T04:42:52.628Z,8.05
2017-11-28T04:43:52.603Z,8.04
2017-11-28T04:44:52.599Z,8.04
2017-11-28T04:45:52.593Z,8.02
2017-11-28T04:46:52.566Z,8.08
2017-11-28T04:47:52.572Z,7.98
2017-11-28T04:48:52.549Z,8.05
2017-11-28T04:49:52.539Z,8.01
2017-11-28T04:50:52.558Z,8
2017-11-28T04:51:52.517Z,8
2017-11-28T04:52:52.505Z,8.02
2017-11-28T04:53:52.504Z,8.05
2017-11-28T04:54:52.485Z,8
2017-11-28T04:55:52.473Z,8.01
2017-11-28T04:56:52.470Z,8.02
2017-11-28T04:57:52.707Z,8.01
2017-11-28T04:58:52.451Z,8.05
2017-11-28T04:59:52.427Z,8.02
2017-11-28T05:00:52.423Z,8.04
2017-11-28T05:01:52.418Z,8.01
2017-11-28T05:02:52.136Z,8.01
2017-11-28T05:03:52.397Z,8.12
2017-11-28T05:04:52.362Z,8.11
2017-11-28T05:05:52.112Z,8.16
2017-11-28T05:06:52.355Z,8.1
2017-11-28T05:07:52.342Z,8.18
2017-11-28T05:08:52.335Z,8.16
2017-11-28T05:09:52.066Z,8.25
2017-11-28T05:10:52.056Z,8.26
2017-11-28T05:11:52.299Z,8.22
2017-11-28T05:12:52.296Z,8.34
2017-11-28T05:13:52.015Z,8.23
2017-11-28T05:14:52.254Z,8.22
2017-11-28T05:15:52.257Z,8.33
2017-11-28T05:16:52.252Z,8.22
2017-11-28T05:17:52.236Z,8.3
2017-11-28T05:18:52.220Z,8.25
2017-11-28T05:19:52.203Z,8.23
2017-11-28T05:20:51.939Z,8.23
2017-11-28T05:21:52.201Z,8.26
2017-11-28T05:22:52.191Z,8.34
2017-11-28T05:23:52.161Z,8.28
2017-11-28T05:24:52.146Z,8.33
2017-11-28T05:25:51.880Z,8.34
2017-11-28T05:26:52.138Z,8.3
2017-11-28T05:27:52.113Z,8.33
2017-11-28T05:28:52.357Z,8.28
2017-11-28T05:29:52.098Z,8.33
2017-11-28T05:30:52.088Z,8.3
2017-11-28T05:31:52.073Z,8.33
2017-11-28T05:32:52.068Z,8.34
2017-11-28T05:33:52.065Z,8.29
2017-11-28T05:34:52.047Z,8.3
2017-11-28T05:35:52.030Z,8.28
2017-11-28T05:36:52.064Z,8.33
2017-11-28T05:37:52.010Z,8.3
2017-11-28T05:38:52.005Z,8.33
2017-11-28T05:39:51.992Z,8.29
2017-11-28T05:40:51.968Z,8.33
2017-11-28T05:41:51.974Z,8.28
2017-11-28T05:42:51.975Z,8.29
2017-11-28T05:43:51.981Z,8.22
2017-11-28T05:44:51.939Z,8.25
2017-11-28T05:45:51.936Z,8.16
2017-11-28T05:46:51.920Z,8.15
2017-11-28T05:47:51.903Z,8.15
2017-11-28T05:48:51.883Z,8.15
2017-11-28T05:49:51.893Z,8.12
2017-11-28T05:50:51.885Z,8.12
2017-11-28T05:51:51.860Z,8.01
2017-11-28T05:52:51.865Z,8.04
2017-11-28T05:53:51.827Z,8.02
2017-11-28T05:54:51.834Z,8.04
2017-11-28T05:55:51.557Z,7.97
2017-11-28T05:56:51.877Z,8
2017-11-28T05:57:51.788Z,7.87
2017-11-28T05:58:51.526Z,7.89
2017-11-28T05:59:51.772Z,7.93
2017-11-28T06:00:51.764Z,7.87
2017-11-28T06:01:51.746Z,7.92
2017-11-28T06:02:51.724Z,7.89
2017-11-28T06:03:51.721Z,7.92
2017-11-28T06:04:51.713Z,7.93
2017-11-28T06:05:51.700Z,7.82
2017-11-28T06:06:51.704Z,7.95
2017-11-28T06:07:51.669Z,7.95
2017-11-28T06:08:51.667Z,7.97
2017-11-28T06:09:51.414Z,7.98
2017-11-28T06:10:51.652Z,7.97
2017-11-28T06:11:51.658Z,7.95
2017-11-28T06:12:51.620Z,7.95
2017-11-28T06:13:51.616Z,7.89
2017-11-28T06:14:51.595Z,7.87
2017-11-28T06:15:51.611Z,7.97
2017-11-28T06:16:51.583Z,7.98
2017-11-28T06:17:51.580Z,7.95
2017-11-28T06:18:51.561Z,7.95
2017-11-28T06:19:51.308Z,8
2017-11-28T06:20:51.539Z,8
2017-11-28T06:21:51.535Z,8
2017-11-28T06:22:51.510Z,7.93
2017-11-28T06:23:51.520Z,7.97
2017-11-28T06:24:51.505Z,8.01
2017-11-28T06:25:51.474Z,8
2017-11-28T06:26:51.471Z,7.9
2017-11-28T06:27:51.457Z,7.89
2017-11-28T06:28:51.446Z,7.89
2017-11-28T06:29:51.435Z,7.92
2017-11-28T06:30:51.438Z,7.86
2017-11-28T06:31:51.419Z,7.8
2017-11-28T06:32:51.406Z,7.86
2017-11-28T06:33:51.386Z,7.82
2017-11-28T06:34:51.378Z,7.74
2017-11-28T06:35:51.378Z,7.8
2017-11-28T06:36:51.374Z,7.72
2017-11-28T06:37:51.347Z,7.79
2017-11-28T06:38:51.331Z,7.71
2017-11-28T06:39:51.316Z,7.64
2017-11-28T06:40:51.301Z,7.68
2017-11-28T06:41:51.308Z,7.58
2017-11-28T06:42:51.294Z,7.63
2017-11-28T06:43:51.293Z,7.55
2017-11-28T06:44:51.273Z,7.58
2017-11-28T06:45:51.256Z,7.55
2017-11-28T06:46:51.247Z,7.57
2017-11-28T06:47:51.247Z,7.49
2017-11-28T06:48:51.239Z,7.67
2017-11-28T06:49:51.223Z,7.63
2017-11-28T06:50:51.211Z,7.61
2017-11-28T06:51:51.185Z,7.6
2017-11-28T06:52:51.182Z,7.55
2017-11-28T06:53:51.163Z,7.49
2017-11-28T06:54:51.162Z,7.52
2017-11-28T06:55:51.143Z,7.6
2017-11-28T06:56:51.142Z,7.63
2017-11-28T06:57:51.134Z,7.63
2017-11-28T06:58:51.120Z,7.48
2017-11-28T06:59:51.095Z,7.61
2017-11-28T07:00:51.101Z,7.6
2017-11-28T07:01:50.811Z,7.53
2017-11-28T07:02:51.304Z,7.58
2017-11-28T07:03:50.801Z,7.63
2017-11-28T07:04:51.050Z,7.61
2017-11-28T07:05:51.037Z,7.58
2017-11-28T07:06:50.765Z,7.57
2017-11-28T07:07:51.026Z,7.57
2017-11-28T07:08:51.024Z,7.63
2017-11-28T07:09:50.988Z,7.58
2017-11-28T07:10:50.710Z,7.55
2017-11-28T07:11:50.967Z,7.57
2017-11-28T07:12:50.956Z,7.55
2017-11-28T07:13:50.680Z,7.57
2017-11-28T07:14:50.933Z,7.67
2017-11-28T07:15:50.916Z,7.64
2017-11-28T07:16:50.915Z,7.55
2017-11-28T07:17:50.910Z,7.63
2017-11-28T07:18:50.892Z,7.69
2017-11-28T07:19:50.877Z,7.67
2017-11-28T07:20:50.874Z,7.67
2017-11-28T07:21:50.849Z,7.72
2017-11-28T07:22:50.865Z,7.67
2017-11-28T07:23:50.827Z,7.67
2017-11-28T07:24:50.824Z,7.63
2017-11-28T07:25:50.813Z,7.63
2017-11-28T07:26:50.787Z,7.61
2017-11-28T07:27:50.785Z,7.63
2017-11-28T07:28:50.510Z,7.71
2017-11-28T07:29:50.516Z,7.64
2017-11-28T07:30:50.489Z,7.63
2017-11-28T07:31:50.729Z,7.75
2017-11-28T07:32:50.728Z,7.67
2017-11-28T07:33:50.704Z,7.77
2017-11-28T07:34:50.456Z,7.74
2017-11-28T07:35:50.423Z,7.85
2017-11-28T07:36:50.682Z,7.74
2017-11-28T07:37:50.669Z,7.77
2017-11-28T07:38:50.662Z,7.79
2017-11-28T07:39:50.659Z,7.86
2017-11-28T07:40:50.633Z,7.75
2017-11-28T07:41:50.617Z,7.77
2017-11-28T07:42:50.621Z,7.75
2017-11-28T07:43:50.333Z,7.79
2017-11-28T07:44:50.591Z,7.8
2017-11-28T07:45:50.578Z,7.82
2017-11-28T07:46:50.570Z,7.87
2017-11-28T07:47:50.553Z,7.89
2017-11-28T07:48:50.550Z,7.89
2017-11-28T07:49:50.530Z,7.9
2017-11-28T07:50:50.522Z,7.86
2017-11-28T07:51:50.524Z,7.9
2017-11-28T07:52:50.493Z,7.82
2017-11-28T07:53:50.502Z,7.86
2017-11-28T07:54:50.474Z,7.87
2017-11-28T07:55:50.207Z,7.87
2017-11-28T07:56:50.205Z,7.89
2017-11-28T07:57:50.445Z,7.9
2017-11-28T07:58:50.428Z,7.89
2017-11-28T07:59:50.428Z,7.85
2017-11-28T08:00:50.414Z,7.82
2017-11-28T08:01:50.413Z,7.92
2017-11-28T08:02:50.381Z,7.95
2017-11-28T08:03:50.378Z,7.93
2017-11-28T08:04:50.618Z,8
2017-11-28T08:05:50.091Z,8.07
2017-11-28T08:06:50.365Z,8.01
2017-11-28T08:07:50.328Z,8
2017-11-28T08:08:50.331Z,8.05
2017-11-28T08:09:50.321Z,8.1
2017-11-28T08:10:50.301Z,8.1
2017-11-28T08:11:50.304Z,8.12
2017-11-28T08:12:50.304Z,8.25
2017-11-28T08:13:50.298Z,8.22
2017-11-28T08:14:50.264Z,8.28
2017-11-28T08:15:50.246Z,8.29
2017-11-28T08:16:50.246Z,8.3
2017-11-28T08:17:50.219Z,8.3
2017-11-28T08:18:49.968Z,8.37
2017-11-28T08:19:50.213Z,8.28
2017-11-28T08:20:50.188Z,8.33
2017-11-28T08:21:50.187Z,8.4
2017-11-28T08:22:50.175Z,8.36
2017-11-28T08:23:50.152Z,8.29
2017-11-28T08:24:50.173Z,8.36
2017-11-28T08:25:50.146Z,8.34
2017-11-28T08:26:50.127Z,8.4
2017-11-28T08:27:50.124Z,8.5
2017-11-28T08:28:50.146Z,8.3
2017-11-28T08:29:49.830Z,8.41
2017-11-28T08:30:50.099Z,8.38
2017-11-28T08:31:50.090Z,8.37
2017-11-28T08:32:50.056Z,8.5
2017-11-28T08:33:49.792Z,8.47
2017-11-28T08:34:50.053Z,8.47
2017-11-28T08:35:50.039Z,8.4
2017-11-28T08:36:50.022Z,8.45
2017-11-28T08:37:50.022Z,8.45
2017-11-28T08:38:49.997Z,8.45
2017-11-28T08:39:49.991Z,8.52
2017-11-28T08:40:50.002Z,8.48
2017-11-28T08:41:49.965Z,8.63
2017-11-28T08:42:49.705Z,8.55
2017-11-28T08:43:49.962Z,8.59
2017-11-28T08:44:49.961Z,8.7
2017-11-28T08:45:49.958Z,8.61
2017-11-28T08:46:49.951Z,8.73
2017-11-28T08:47:49.914Z,8.81
2017-11-28T08:48:49.920Z,8.71
2017-11-28T08:49:49.898Z,8.86
2017-11-28T08:50:49.896Z,8.89
2017-11-28T08:51:50.090Z,8.95
2017-11-28T08:52:49.600Z,8.92
2017-11-28T08:53:49.845Z,9.02
2017-11-28T08:54:49.615Z,9.01
2017-11-28T08:55:49.898Z,9.08
2017-11-28T08:56:49.871Z,9.04
2017-11-28T08:57:49.826Z,9.04
2017-11-28T08:58:49.555Z,9.01
2017-11-28T08:59:49.865Z,9.04
2017-11-28T09:00:49.820Z,9.04
2017-11-28T09:01:49.821Z,8.98
2017-11-28T09:02:49.811Z,9.04
2017-11-28T09:03:49.522Z,8.96
2017-11-28T09:04:49.861Z,8.98
2017-11-28T09:05:49.785Z,8.96
2017-11-28T09:06:49.761Z,9.02
2017-11-28T09:07:49.723Z,8.98
2017-11-28T09:08:49.716Z,9.04
2017-11-28T09:09:49.724Z,9.01
2017-11-28T09:10:49.751Z,9.05
2017-11-28T09:11:49.743Z,8.99
2017-11-28T09:12:49.748Z,8.98
2017-11-28T09:13:49.630Z,8.99
2017-11-28T09:14:49.636Z,9.08
2017-11-28T09:15:49.644Z,8.98
2017-11-28T09:16:49.637Z,9.01
2017-11-28T09:17:49.613Z,9.11
2017-11-28T09:18:49.622Z,9.08
2017-11-28T09:19:49.326Z,9.08
2017-11-28T09:20:49.346Z,9.15
2017-11-28T09:21:49.634Z,9.04
2017-11-28T09:22:49.621Z,9.08
2017-11-28T09:23:49.536Z,9.05
2017-11-28T09:24:49.552Z,9.04
2017-11-28T09:25:49.537Z,9.04
2017-11-28T09:26:49.504Z,9.05
2017-11-28T09:27:49.529Z,9.01
2017-11-28T09:28:49.240Z,9.02
2017-11-28T09:29:49.244Z,9.04
2017-11-28T09:30:49.474Z,9.05
2017-11-28T09:31:49.214Z,9.13
2017-11-28T09:32:49.240Z,9.23
2017-11-28T09:33:49.451Z,9.18
2017-11-28T09:34:49.459Z,9.2
2017-11-28T09:35:49.653Z,9.29
2017-11-28T09:36:49.153Z,9.33
2017-11-28T09:37:49.394Z,9.33
2017-11-28T09:38:49.417Z,9.33
2017-11-28T09:39:49.424Z,9.29
2017-11-28T09:40:49.376Z,9.36
2017-11-28T09:41:49.117Z,9.31
2017-11-28T09:42:49.354Z,9.33
2017-11-28T09:43:49.425Z,9.24
2017-11-28T09:44:49.076Z,9.26
2017-11-28T09:45:49.053Z,9.31
2017-11-28T09:46:49.044Z,9.24
2017-11-28T09:47:49.309Z,9.24
2017-11-28T09:48:49.053Z,9.29
2017-11-28T09:49:49.045Z,9.32
2017-11-28T09:50:49.274Z,9.33
2017-11-28T09:51:49.312Z,9.31
2017-11-28T09:52:49.273Z,9.4
2017-11-28T09:53:49.261Z,9.39
2017-11-28T09:54:49.230Z,9.5
2017-11-28T09:55:49.249Z,9.5
2017-11-28T09:56:49.299Z,9.36
2017-11-28T09:57:49.188Z,9.46
2017-11-28T09:58:48.945Z,9.47
2017-11-28T09:59:49.260Z,9.43
2017-11-28T10:00:49.177Z,9.48
2017-11-28T10:01:49.163Z,9.4
2017-11-28T10:02:48.880Z,9.43
2017-11-28T10:03:48.902Z,9.47
2017-11-28T10:04:49.130Z,9.47
2017-11-28T10:05:49.140Z,9.42
2017-11-28T10:06:49.123Z,9.42
2017-11-28T10:07:49.127Z,9.53
2017-11-28T10:08:48.843Z,9.51
2017-11-28T10:09:49.352Z,9.5
2017-11-28T10:10:49.059Z,9.48
2017-11-28T10:11:49.066Z,9.51
2017-11-28T10:12:49.081Z,9.48
2017-11-28T10:13:49.050Z,9.51
2017-11-28T10:14:48.765Z,9.54
2017-11-28T10:15:49.030Z,9.56
2017-11-28T10:16:49.018Z,9.56
2017-11-28T10:17:49.002Z,9.65
2017-11-28T10:18:48.732Z,9.68
2017-11-28T10:19:49.001Z,9.71
2017-11-28T10:20:48.976Z,9.76
2017-11-28T10:21:48.965Z,9.83
2017-11-28T10:22:48.970Z,9.79
2017-11-28T10:23:48.990Z,9.83
2017-11-28T10:24:48.940Z,9.87
2017-11-28T10:25:48.965Z,9.93
2017-11-28T10:26:48.946Z,9.91
2017-11-28T10:27:49.193Z,9.97
2017-11-28T10:28:48.906Z,10.01
2017-11-28T10:29:48.909Z,9.94
2017-11-28T10:30:48.876Z,9.96
2017-11-28T10:31:49.318Z,9.96
2017-11-28T10:32:48.898Z,9.97
2017-11-28T10:33:48.595Z,10.01
2017-11-28T10:34:48.877Z,9.96
2017-11-28T10:35:48.568Z,9.94
2017-11-28T10:36:48.838Z,9.96
2017-11-28T10:37:48.311Z,10.07
2017-11-28T10:38:48.298Z,10.14
2017-11-28T10:39:48.804Z,10.2
2017-11-28T10:40:49.052Z,10.23
2017-11-28T10:41:48.814Z,10.18
2017-11-28T10:42:48.764Z,10.25
2017-11-28T10:43:48.497Z,10.27
2017-11-28T10:44:48.804Z,10.23
2017-11-28T10:45:48.767Z,10.34
2017-11-28T10:46:48.752Z,10.34
2017-11-28T10:47:48.479Z,10.26
2017-11-28T10:48:48.465Z,10.33
2017-11-28T10:49:48.716Z,10.32
2017-11-28T10:50:48.702Z,10.32
2017-11-28T10:51:48.430Z,10.4
2017-11-28T10:52:48.719Z,10.32
2017-11-28T10:53:48.670Z,10.23
2017-11-28T10:54:48.659Z,10.22
2017-11-28T10:55:48.398Z,10.17
2017-11-28T10:56:48.678Z,10.2
2017-11-28T10:57:48.635Z,10.2
2017-11-28T10:58:48.367Z,10.12
2017-11-28T10:59:48.359Z,10.12
2017-11-28T11:00:48.658Z,10.18
2017-11-28T11:01:48.339Z,10.17
2017-11-28T11:02:48.325Z,10.22
2017-11-28T11:03:48.590Z,10.2
2017-11-28T11:04:48.344Z,10.27
2017-11-28T11:05:48.044Z,10.27
2017-11-28T11:06:48.285Z,10.29
2017-11-28T11:07:48.295Z,10.34
2017-11-28T11:08:48.281Z,10.44
2017-11-28T11:09:48.254Z,10.48
2017-11-28T11:10:48.279Z,10.41
2017-11-28T11:11:48.749Z,10.38
2017-11-28T11:12:48.232Z,10.45
2017-11-28T11:13:48.523Z,10.42
2017-11-28T11:14:48.004Z,10.44
2017-11-28T11:15:48.518Z,10.33
2017-11-28T11:16:48.207Z,10.3
2017-11-28T11:17:48.494Z,10.26
2017-11-28T11:18:48.500Z,10.34
2017-11-28T11:19:48.431Z,10.26
2017-11-28T11:20:48.454Z,10.3
2017-11-28T11:21:48.234Z,10.25
2017-11-28T11:22:48.467Z,10.26
2017-11-28T11:23:48.412Z,10.29
2017-11-28T11:24:48.428Z,10.29
2017-11-28T11:25:48.393Z,10.36
2017-11-28T11:26:48.114Z,10.33
2017-11-28T11:27:48.388Z,10.34
2017-11-28T11:28:48.105Z,10.4
2017-11-28T11:29:48.352Z,10.4
2017-11-28T11:30:48.082Z,10.34
2017-11-28T11:31:48.333Z,10.36
2017-11-28T11:32:48.067Z,10.45
2017-11-28T11:33:48.340Z,10.45
2017-11-28T11:34:47.812Z,10.59
2017-11-28T11:35:48.307Z,10.55
2017-11-28T11:36:48.283Z,10.55
2017-11-28T11:37:48.019Z,10.51
2017-11-28T11:38:48.290Z,10.59
2017-11-28T11:39:48.284Z,10.59
2017-11-28T11:40:48.859Z,10.56
2017-11-28T11:41:48.077Z,10.56
2017-11-28T11:42:48.400Z,10.59
2017-11-28T11:43:48.340Z,10.6
2017-11-28T11:44:48.241Z,10.61
2017-11-28T11:45:48.001Z,10.63
2017-11-28T11:46:48.300Z,10.67
2017-11-28T11:47:47.967Z,10.67
2017-11-28T11:48:48.203Z,10.6
2017-11-28T11:49:47.979Z,10.59
2017-11-28T11:50:48.170Z,10.47
2017-11-28T11:51:48.165Z,10.45
2017-11-28T11:52:48.453Z,10.42
2017-11-28T11:53:47.915Z,10.36
2017-11-28T11:54:48.156Z,10.3
2017-11-28T11:55:47.856Z,10.25
2017-11-28T11:56:47.852Z,10.2
2017-11-28T11:57:48.125Z,10.08
2017-11-28T11:58:48.095Z,10.08
2017-11-28T11:59:48.033Z,9.97
2017-11-28T12:00:48.130Z,10.09
2017-11-28T12:01:48.076Z,10.09
2017-11-28T12:02:48.067Z,10.08
2017-11-28T12:03:47.784Z,10.08
2017-11-28T12:04:47.774Z,10.07
2017-11-28T12:05:48.028Z,10.11
2017-11-28T12:06:47.506Z,10.01
2017-11-28T12:07:48.026Z,10.05
2017-11-28T12:08:47.792Z,9.96
2017-11-28T12:09:48.029Z,9.86
2017-11-28T12:10:47.712Z,9.79
2017-11-28T12:11:47.729Z,9.79
2017-11-28T12:12:47.996Z,9.69
2017-11-28T12:13:47.963Z,9.78
2017-11-28T12:14:47.985Z,9.74
2017-11-28T12:15:47.438Z,9.69
2017-11-28T12:16:47.434Z,9.64
2017-11-28T12:17:47.655Z,9.6
2017-11-28T12:18:47.903Z,9.66
2017-11-28T12:19:47.893Z,9.61
2017-11-28T12:20:47.649Z,9.66
2017-11-28T12:21:47.907Z,9.66
2017-11-28T12:22:47.867Z,9.69
2017-11-28T12:23:47.592Z,9.72
2017-11-28T12:24:47.911Z,9.74
2017-11-28T12:25:47.931Z,9.68
2017-11-28T12:26:47.670Z,9.74
2017-11-28T12:27:47.580Z,9.71
2017-11-28T12:28:47.554Z,9.64
2017-11-28T12:29:47.552Z,9.6
2017-11-28T12:30:47.547Z,9.57
2017-11-28T12:31:47.554Z,9.46
2017-11-28T12:32:47.522Z,9.5
2017-11-28T12:33:47.510Z,9.38
2017-11-28T12:34:47.765Z,9.5
2017-11-28T12:35:47.494Z,9.38
2017-11-28T12:36:47.519Z,9.5
2017-11-28T12:37:47.492Z,9.4
2017-11-28T12:38:47.767Z,9.47
2017-11-28T12:39:47.722Z,9.33
2017-11-28T12:40:47.453Z,9.38
2017-11-28T12:41:47.445Z,9.33
2017-11-28T12:42:47.703Z,9.29
2017-11-28T12:43:47.423Z,9.28
2017-11-28T12:44:47.712Z,9.23
2017-11-28T12:45:47.681Z,9.21
2017-11-28T12:46:47.664Z,9.1
2017-11-28T12:47:47.647Z,9.18
2017-11-28T12:48:47.663Z,9.2
2017-11-28T12:49:47.365Z,9.11
2017-11-28T12:50:47.417Z,9.15
2017-11-28T12:51:47.612Z,9.1
2017-11-28T12:52:47.339Z,9.08
2017-11-28T12:53:47.339Z,9.11
2017-11-28T12:54:47.355Z,9.11
2017-11-28T12:55:47.570Z,9.02
2017-11-28T12:56:47.337Z,9.02
2017-11-28T12:57:47.576Z,9.01
2017-11-28T12:58:47.509Z,8.92
2017-11-28T12:59:47.556Z,8.79
2017-11-28T13:00:47.281Z,8.76
2017-11-28T13:01:46.980Z,8.7
2017-11-28T13:02:47.237Z,8.71
2017-11-28T13:03:47.537Z,8.66
2017-11-28T13:04:47.485Z,8.62
2017-11-28T13:05:47.211Z,8.65
2017-11-28T13:06:46.936Z,8.61
2017-11-28T13:07:47.176Z,8.61
2017-11-28T13:08:47.461Z,8.63
2017-11-28T13:09:47.453Z,8.56
2017-11-28T13:10:47.425Z,8.74
2017-11-28T13:11:47.392Z,8.71
2017-11-28T13:12:47.383Z,8.8
2017-11-28T13:13:47.398Z,8.71
2017-11-28T13:14:47.433Z,8.8
2017-11-28T13:15:47.379Z,8.84
2017-11-28T13:16:47.614Z,8.89
2017-11-28T13:17:47.334Z,8.8
2017-11-28T13:18:47.059Z,8.8
2017-11-28T13:19:47.319Z,8.91